Time;durP1;ratioP1;P1;durP2;ratioP2;P2;SDS_P1;SDS_P2;PMS_P1;PMS_P2;Temp;Humidity;BMP_temperature;BMP_pressure;BME280_temperature;BME280_humidity;BME280_pressure;Samples;Min_cycle;Max_cycle;Signal;HPM_P1;HPM_P2
2022/04/01 00:00:08;;;;;;;1.42;0.80;;;2.10;61.70;;;;;;5049841;28;20036;-81
2022/04/01 00:02:34;;;;;;;4.90;0.90;;;2.10;62.20;;;;;;5051199;28;20032;-82
2022/04/01 00:04:59;;;;;;;3.88;1.45;;;2.10;61.70;;;;;;5066410;28;20021;-82
2022/04/01 00:07:25;;;;;;;5.28;0.73;;;2.00;61.40;;;;;;5052517;28;20368;-82
2022/04/01 00:09:50;;;;;;;1.92;1.00;;;2.00;61.60;;;;;;5050359;28;20024;-83
2022/04/01 00:12:16;;;;;;;2.05;1.00;;;2.00;62.80;;;;;;5070292;28;20032;-82
2022/04/01 00:14:41;;;;;;;2.95;0.77;;;2.00;61.90;;;;;;5070217;28;20154;-82
2022/04/01 00:17:07;;;;;;;1.95;1.00;;;2.00;62.40;;;;;;5050055;28;20037;-81
2022/04/01 00:19:33;;;;;;;2.05;0.88;;;2.00;62.50;;;;;;5032673;28;20032;-83
2022/04/01 00:21:58;;;;;;;5.18;1.20;;;2.00;62.40;;;;;;5054063;28;20476;-82
2022/04/01 00:24:24;;;;;;;2.55;0.70;;;2.00;62.60;;;;;;5048594;28;20388;-82
2022/04/01 00:26:50;;;;;;;2.47;1.02;;;2.00;62.90;;;;;;5068734;28;20028;-82
2022/04/01 00:29:15;;;;;;;1.20;0.70;;;2.00;62.00;;;;;;5058809;28;20090;-82
2022/04/01 00:31:49;;;;;;;2.33;0.80;;;2.00;62.80;;;;;;5052998;28;20028;-82
2022/04/01 00:34:15;;;;;;;3.15;0.93;;;1.90;62.50;;;;;;5048042;28;20024;-82
2022/04/01 00:36:49;;;;;;;1.98;0.95;;;1.90;62.20;;;;;;5065182;28;20129;-82
2022/04/01 00:39:17;;;;;;;1.67;0.90;;;2.00;62.80;;;;;;5070213;28;20025;-82
2022/04/01 00:41:47;;;;;;;2.83;1.13;;;2.00;63.00;;;;;;5065679;28;20032;-82
2022/04/01 00:44:15;;;;;;;4.22;1.08;;;2.00;62.80;;;;;;5071648;28;20105;-81
2022/04/01 00:46:47;;;;;;;3.15;1.10;;;2.00;62.80;;;;;;5065381;28;20024;-82
2022/04/01 00:49:13;;;;;;;1.35;0.82;;;2.00;61.90;;;;;;5065778;28;20672;-82
2022/04/01 00:51:42;;;;;;;3.38;1.15;;;2.00;62.60;;;;;;5069245;28;20036;-82
2022/04/01 00:54:08;;;;;;;2.55;1.05;;;2.00;62.60;;;;;;5072022;28;20055;-82
2022/04/01 00:56:35;;;;;;;3.72;1.10;;;2.00;62.80;;;;;;5069273;28;20025;-82
2022/04/01 00:59:01;;;;;;;2.08;0.90;;;2.00;62.20;;;;;;5057963;28;20588;-82
2022/04/01 01:01:27;;;;;;;5.32;1.35;;;2.00;62.80;;;;;;5063917;28;20909;-81
2022/04/01 01:03:52;;;;;;;2.33;1.40;;;2.00;62.70;;;;;;5063911;28;20100;-82
2022/04/01 01:06:21;;;;;;;2.95;1.60;;;2.00;62.60;;;;;;5061571;28;20046;-82
2022/04/01 01:08:48;;;;;;;4.70;1.60;;;2.00;62.90;;;;;;5064221;28;20036;-82
2022/04/01 01:11:14;;;;;;;2.15;1.30;;;2.00;62.40;;;;;;5056212;28;20024;-81
2022/04/01 01:13:40;;;;;;;2.65;1.17;;;2.00;62.90;;;;;;5059871;28;20021;-82
2022/04/01 01:16:07;;;;;;;3.70;1.30;;;2.00;62.40;;;;;;5067106;28;20116;-81
2022/04/01 01:18:33;;;;;;;3.38;1.13;;;2.00;62.20;;;;;;5064217;28;20039;-81
2022/04/01 01:20:59;;;;;;;2.60;1.27;;;2.00;62.40;;;;;;5065522;28;20441;-81
2022/04/01 01:23:31;;;;;;;3.97;1.30;;;2.00;63.10;;;;;;5066427;28;20028;-82
2022/04/01 01:25:57;;;;;;;1.50;1.00;;;2.00;62.80;;;;;;5071686;28;20141;-81
2022/04/01 01:28:23;;;;;;;2.75;1.10;;;2.00;62.30;;;;;;5067627;28;20530;-82
2022/04/01 01:30:49;;;;;;;3.15;1.25;;;2.10;62.60;;;;;;5070938;28;20028;-81
2022/04/01 01:33:15;;;;;;;2.28;1.05;;;2.00;62.70;;;;;;5068081;28;20383;-81
2022/04/01 01:35:41;;;;;;;1.88;0.98;;;1.90;61.90;;;;;;5066848;28;20048;-82
2022/04/01 01:38:08;;;;;;;2.20;0.88;;;2.00;62.60;;;;;;5063876;28;20516;-82
2022/04/01 01:40:34;;;;;;;4.05;1.20;;;1.90;62.80;;;;;;5072719;28;20107;-82
2022/04/01 01:42:59;;;;;;;5.40;1.20;;;2.00;62.70;;;;;;5067669;28;20099;-81
2022/04/01 01:45:29;;;;;;;1.60;0.93;;;1.90;62.60;;;;;;5060875;28;20020;-81
2022/04/01 01:47:54;;;;;;;1.40;1.10;;;1.90;62.00;;;;;;5050597;28;20049;-82
2022/04/01 01:55:48;;;;;;;3.85;1.15;;;1.90;62.30;;;;;;5069413;28;20040;-82
2022/04/01 01:58:15;;;;;;;2.30;1.02;;;2.00;62.40;;;;;;5058172;28;20025;-82
2022/04/01 02:00:41;;;;;;;1.90;1.20;;;2.00;62.40;;;;;;5050123;28;20028;-81
2022/04/01 02:03:06;;;;;;;5.30;1.08;;;2.00;63.00;;;;;;5050921;28;20025;-82
2022/04/01 02:05:34;;;;;;;3.10;1.20;;;2.00;62.40;;;;;;5051066;28;20028;-82
2022/04/01 02:08:00;;;;;;;3.78;1.20;;;2.00;62.80;;;;;;5045318;28;20017;-82
2022/04/01 02:10:26;;;;;;;2.33;1.40;;;1.90;62.00;;;;;;5071485;28;20028;-82
2022/04/01 02:12:52;;;;;;;3.00;1.55;;;2.00;62.50;;;;;;5048946;28;20021;-82
2022/04/01 02:15:17;;;;;;;5.15;1.33;;;2.00;62.80;;;;;;5064602;28;20113;-82
2022/04/01 02:17:43;;;;;;;1.73;1.35;;;2.00;63.20;;;;;;5066780;28;20032;-82
2022/04/01 02:20:10;;;;;;;3.22;1.50;;;2.00;62.80;;;;;;5059221;28;20024;-81
2022/04/01 02:22:37;;;;;;;2.20;1.25;;;2.00;62.50;;;;;;5061342;28;20219;-82
2022/04/01 02:25:05;;;;;;;5.18;1.60;;;2.00;63.60;;;;;;5052712;28;20462;-82
2022/04/01 02:27:31;;;;;;;3.22;1.50;;;2.00;63.20;;;;;;5059056;28;20393;-81
2022/04/01 02:29:57;;;;;;;4.45;1.63;;;1.90;62.00;;;;;;5045724;28;20029;-82
2022/04/01 02:32:26;;;;;;;3.97;1.35;;;2.00;62.40;;;;;;5048324;28;20130;-82
2022/04/01 02:34:51;;;;;;;4.35;1.17;;;2.00;62.10;;;;;;5050414;28;20098;-81
2022/04/01 02:37:21;;;;;;;2.95;1.25;;;2.00;63.00;;;;;;5068438;28;20036;-81
2022/04/01 02:39:47;;;;;;;3.85;1.40;;;1.90;62.30;;;;;;5066974;28;20032;-81
2022/04/01 02:42:12;;;;;;;4.40;1.02;;;1.90;62.70;;;;;;5050347;28;20430;-82
2022/04/01 02:44:38;;;;;;;2.92;1.40;;;2.00;62.30;;;;;;5050052;28;20024;-81
2022/04/01 02:47:04;;;;;;;1.77;1.15;;;1.90;62.90;;;;;;5045600;28;20021;-82
2022/04/01 02:49:29;;;;;;;3.45;1.15;;;1.90;62.60;;;;;;5063553;28;20033;-81
2022/04/01 02:51:55;;;;;;;4.15;1.30;;;1.90;62.60;;;;;;5044249;28;20560;-81
2022/04/01 02:54:21;;;;;;;4.13;1.15;;;1.90;62.50;;;;;;5070710;28;20111;-81
2022/04/01 02:56:47;;;;;;;2.85;1.30;;;1.90;63.50;;;;;;5061163;28;20212;-81
2022/04/01 02:59:12;;;;;;;2.92;1.38;;;1.90;63.60;;;;;;5049993;28;20024;-80
2022/04/01 03:01:40;;;;;;;3.60;1.40;;;1.90;63.70;;;;;;5068081;28;20483;-80
2022/04/01 03:04:10;;;;;;;2.00;1.13;;;1.90;63.30;;;;;;5044084;28;20470;-80
2022/04/01 03:06:40;;;;;;;3.00;1.30;;;1.80;63.20;;;;;;5049204;28;20537;-80
2022/04/01 03:09:10;;;;;;;4.13;1.33;;;1.80;63.40;;;;;;5050614;28;20559;-81
2022/04/01 03:11:36;;;;;;;4.80;1.23;;;1.90;63.20;;;;;;5050555;28;20123;-80
2022/04/01 03:14:06;;;;;;;3.78;0.93;;;1.80;63.60;;;;;;5045608;28;20119;-80
2022/04/01 03:16:32;;;;;;;4.22;1.27;;;1.80;63.50;;;;;;5066154;28;20410;-80
2022/04/01 03:18:59;;;;;;;1.92;1.10;;;1.80;63.70;;;;;;5051373;28;20089;-81
2022/04/01 03:21:26;;;;;;;3.53;1.20;;;1.80;64.00;;;;;;5068292;28;20024;-81
2022/04/01 03:23:52;;;;;;;3.20;1.17;;;1.80;64.60;;;;;;5067030;28;20278;-81
2022/04/01 03:26:18;;;;;;;4.25;1.15;;;1.80;64.90;;;;;;5064360;28;20032;-82
2022/04/01 03:28:44;;;;;;;4.72;1.33;;;1.80;64.60;;;;;;5068649;28;20093;-80
2022/04/01 03:31:10;;;;;;;2.50;1.10;;;1.70;64.70;;;;;;5073955;28;20026;-80
2022/04/01 03:33:36;;;;;;;2.63;0.98;;;1.70;64.80;;;;;;5045450;28;20040;-81
2022/04/01 03:36:03;;;;;;;2.97;1.00;;;1.70;65.10;;;;;;5047510;28;20064;-80
2022/04/01 03:38:30;;;;;;;3.40;1.10;;;1.70;65.20;;;;;;5049549;28;20391;-80
2022/04/01 03:40:57;;;;;;;4.03;0.93;;;1.70;64.50;;;;;;5056517;28;20027;-80
2022/04/01 03:43:24;;;;;;;3.03;1.20;;;1.70;65.10;;;;;;5075594;28;20046;-80
2022/04/01 03:45:52;;;;;;;2.50;1.10;;;1.60;63.30;;;;;;5071279;28;20036;-81
2022/04/01 03:48:35;;;;;;;2.85;0.95;;;1.70;64.30;;;;;;5048616;28;20391;-81
2022/04/01 03:51:01;;;;;;;2.92;1.20;;;1.70;64.60;;;;;;5056671;28;20013;-81
2022/04/01 03:53:29;;;;;;;4.45;0.90;;;1.60;64.30;;;;;;5070950;28;20074;-80
2022/04/01 03:55:57;;;;;;;2.35;0.95;;;1.70;63.90;;;;;;5063092;28;20056;-80
2022/04/01 03:58:27;;;;;;;1.05;0.80;;;1.60;64.40;;;;;;5068931;28;20024;-81
2022/04/01 04:00:53;;;;;;;4.95;1.20;;;1.60;64.30;;;;;;5066638;28;20443;-80
2022/04/01 04:03:20;;;;;;;2.80;1.05;;;1.70;64.30;;;;;;5054613;28;20056;-80
2022/04/01 04:05:47;;;;;;;3.90;1.25;;;1.60;63.60;;;;;;5067683;28;20028;-80
2022/04/01 04:08:21;;;;;;;2.92;1.17;;;1.60;64.10;;;;;;5072555;28;20032;-80
2022/04/01 04:10:48;;;;;;;2.13;1.10;;;1.60;64.10;;;;;;5050036;28;20130;-80
2022/04/01 04:13:15;;;;;;;2.15;1.20;;;1.60;64.20;;;;;;5053054;28;20380;-80
2022/04/01 04:16:08;;;;;;;2.67;1.27;;;1.60;63.90;;;;;;5062893;28;20048;-80
2022/04/01 04:18:51;;;;;;;1.73;0.90;;;1.60;63.80;;;;;;5046876;28;20028;-79
2022/04/01 04:21:25;;;;;;;3.80;1.20;;;1.60;63.90;;;;;;5067142;28;20033;-79
2022/04/01 04:23:55;;;;;;;2.08;1.25;;;1.60;64.30;;;;;;5042242;28;20048;-81
2022/04/01 04:26:32;;;;;;;2.53;1.05;;;1.60;64.40;;;;;;5051055;28;20528;-79
2022/04/01 04:29:17;;;;;;;2.05;1.10;;;1.60;64.60;;;;;;5061721;28;20039;-79
2022/04/01 04:32:17;;;;;;;4.22;1.40;;;1.60;64.50;;;;;;5065167;28;20036;-79
2022/04/01 04:34:46;;;;;;;3.92;1.70;;;1.60;64.10;;;;;;5040754;28;20433;-79
2022/04/01 04:37:14;;;;;;;4.22;1.50;;;1.60;64.60;;;;;;5059873;28;20047;-80
2022/04/01 04:39:40;;;;;;;7.65;1.67;;;1.60;64.30;;;;;;5070556;28;20083;-80
2022/04/01 04:42:09;;;;;;;6.53;1.70;;;1.50;64.00;;;;;;5049837;28;20070;-80
2022/04/01 04:44:36;;;;;;;3.17;1.60;;;1.60;64.30;;;;;;5054796;28;20475;-80
2022/04/01 04:47:04;;;;;;;2.95;1.30;;;1.60;64.20;;;;;;5052450;28;20020;-80
2022/04/01 04:49:31;;;;;;;4.90;1.40;;;1.60;64.60;;;;;;5064945;28;20044;-80
2022/04/01 04:51:58;;;;;;;7.72;1.60;;;1.50;64.60;;;;;;5063598;28;20031;-80
2022/04/01 04:54:25;;;;;;;6.55;1.70;;;1.60;64.40;;;;;;5053356;28;20081;-80
2022/04/01 04:56:52;;;;;;;6.32;1.40;;;1.60;64.10;;;;;;5058381;28;20029;-80
2022/04/01 04:59:20;;;;;;;3.97;1.30;;;1.60;64.40;;;;;;5067323;28;20120;-80
2022/04/01 05:02:01;;;;;;;4.93;1.60;;;1.60;64.50;;;;;;5063981;28;20079;-80
2022/04/01 05:04:42;;;;;;;3.10;1.38;;;1.60;64.40;;;;;;5068939;28;20391;-80
2022/04/01 05:07:44;;;;;;;5.38;1.75;;;1.60;64.40;;;;;;5048482;28;20025;-80
2022/04/01 05:10:16;;;;;;;3.25;1.52;;;1.60;64.50;;;;;;5048532;28;20032;-80
2022/04/01 05:12:56;;;;;;;4.80;1.40;;;1.60;64.80;;;;;;5069166;28;20391;-80
2022/04/01 05:15:41;;;;;;;4.85;1.90;;;1.60;65.10;;;;;;5068656;28;20037;-80
2022/04/01 05:18:42;;;;;;;5.97;1.95;;;1.60;65.20;;;;;;5062631;28;20086;-79
2022/04/01 05:21:23;;;;;;;5.72;1.80;;;1.60;65.10;;;;;;5025306;28;20036;-80
2022/04/01 05:23:54;;;;;;;5.35;1.90;;;1.60;65.40;;;;;;5067154;28;20498;-81
2022/04/01 05:26:23;;;;;;;5.03;1.70;;;1.60;65.30;;;;;;5060860;28;20022;-80
2022/04/01 05:28:53;;;;;;;3.42;1.80;;;1.70;65.70;;;;;;5050475;28;20032;-80
2022/04/01 05:31:33;;;;;;;5.18;1.98;;;1.70;65.70;;;;;;5065325;28;20025;-80
2022/04/01 05:34:08;;;;;;;3.83;1.60;;;1.70;65.50;;;;;;5049487;28;20040;-80
2022/04/01 05:36:34;;;;;;;4.07;1.83;;;1.70;65.70;;;;;;5069335;28;20127;-80
2022/04/01 05:39:00;;;;;;;3.70;1.80;;;1.70;65.90;;;;;;5069394;28;20042;-80
2022/04/01 05:41:27;;;;;;;3.67;1.75;;;1.70;66.10;;;;;;5069379;28;20028;-80
2022/04/01 05:43:53;;;;;;;4.07;2.20;;;1.70;66.00;;;;;;5070991;28;20032;-80
2022/04/01 05:46:22;;;;;;;3.22;1.70;;;1.80;65.80;;;;;;5065934;28;20032;-80
2022/04/01 05:48:49;;;;;;;4.85;1.85;;;1.80;66.60;;;;;;5062748;28;20115;-80
2022/04/01 05:51:15;;;;;;;5.80;1.88;;;1.80;66.40;;;;;;5061397;28;20025;-80
2022/04/01 05:53:45;;;;;;;4.38;1.80;;;1.80;66.80;;;;;;5071350;28;20048;-80
2022/04/01 05:56:12;;;;;;;6.45;2.55;;;1.80;66.50;;;;;;5062734;28;20020;-80
2022/04/01 05:58:39;;;;;;;3.65;1.83;;;1.90;66.90;;;;;;5055122;28;20182;-80
2022/04/01 06:01:25;;;;;;;4.53;2.08;;;2.00;66.60;;;;;;5072694;28;20034;-80
2022/04/01 06:03:54;;;;;;;4.93;2.05;;;2.00;67.00;;;;;;5049487;28;20461;-80
2022/04/01 06:06:28;;;;;;;7.88;2.15;;;2.00;66.60;;;;;;5053525;28;20118;-80
2022/04/01 06:08:57;;;;;;;3.97;1.80;;;2.00;67.20;;;;;;5054493;28;20031;-80
2022/04/01 06:11:44;;;;;;;6.05;2.40;;;2.00;66.20;;;;;;5070084;28;20036;-80
2022/04/01 06:14:33;;;;;;;6.88;2.33;;;2.10;66.50;;;;;;5054667;28;20047;-80
2022/04/01 06:17:31;;;;;;;4.28;2.25;;;2.10;66.60;;;;;;5065126;28;20498;-80
2022/04/01 06:20:03;;;;;;;6.78;2.40;;;2.10;66.20;;;;;;5070235;28;20024;-80
2022/04/01 06:22:31;;;;;;;5.18;2.10;;;2.10;66.90;;;;;;5047069;28;20021;-80
2022/04/01 06:25:11;;;;;;;4.78;2.00;;;2.10;66.20;;;;;;5055239;28;20017;-80
2022/04/01 06:27:48;;;;;;;4.90;1.77;;;2.20;66.50;;;;;;5051694;28;20032;-80
2022/04/01 06:30:19;;;;;;;4.32;2.35;;;2.20;66.50;;;;;;5070116;28;20059;-81
2022/04/01 06:32:59;;;;;;;7.40;2.13;;;2.30;66.50;;;;;;5072570;28;20479;-81
2022/04/01 06:35:35;;;;;;;5.13;2.08;;;2.30;66.40;;;;;;5070239;28;20048;-80
2022/04/01 06:38:05;;;;;;;4.35;2.10;;;2.30;65.90;;;;;;5070801;28;20025;-80
2022/04/01 06:40:55;;;;;;;5.43;2.13;;;2.40;66.40;;;;;;5064100;28;20094;-80
2022/04/01 06:43:21;;;;;;;6.07;2.40;;;2.50;65.50;;;;;;5050612;28;20119;-80
2022/04/01 06:45:47;;;;;;;4.95;2.05;;;2.50;65.00;;;;;;5053213;28;20039;-80
2022/04/01 06:48:12;;;;;;;5.22;1.92;;;2.50;65.40;;;;;;5046386;28;20029;-80
2022/04/01 06:50:38;;;;;;;5.65;2.25;;;2.50;65.30;;;;;;5065293;28;20032;-80
2022/04/01 06:53:05;;;;;;;5.80;2.25;;;2.60;65.30;;;;;;5051379;28;20028;-80
2022/04/01 06:55:30;;;;;;;5.47;2.70;;;2.70;64.90;;;;;;5064503;28;20078;-80
2022/04/01 06:57:56;;;;;;;3.83;2.30;;;2.70;65.00;;;;;;5049021;28;20406;-80
2022/04/01 07:00:22;;;;;;;8.68;2.25;;;2.70;64.50;;;;;;5051641;28;20384;-80
2022/04/01 07:02:49;;;;;;;6.80;2.47;;;2.80;64.30;;;;;;5071812;28;20483;-80
2022/04/01 07:05:14;;;;;;;5.60;2.60;;;2.80;63.60;;;;;;5054759;28;20017;-79
2022/04/01 07:07:44;;;;;;;6.95;2.17;;;2.80;63.40;;;;;;5059819;28;20032;-80
2022/04/01 07:10:13;;;;;;;7.25;2.53;;;2.90;63.10;;;;;;5078313;28;20024;-80
2022/04/01 07:12:39;;;;;;;6.70;1.95;;;2.90;62.70;;;;;;5059247;28;20082;-80
2022/04/01 07:15:10;;;;;;;4.95;2.25;;;3.00;62.80;;;;;;5072322;28;20391;-80
2022/04/01 07:17:35;;;;;;;6.03;2.28;;;3.00;62.20;;;;;;5059623;28;20036;-80
2022/04/01 07:20:02;;;;;;;7.13;1.92;;;3.00;61.50;;;;;;5076072;28;20028;-80
2022/04/01 07:22:27;;;;;;;4.72;2.20;;;3.00;61.40;;;;;;5060490;28;20033;-80
2022/04/01 07:24:53;;;;;;;4.32;2.20;;;3.10;61.30;;;;;;5056492;28;20039;-80
2022/04/01 07:27:18;;;;;;;4.45;2.35;;;3.10;61.20;;;;;;5059716;28;20032;-80
2022/04/01 07:29:44;;;;;;;7.38;1.90;;;3.20;61.60;;;;;;5048318;28;20123;-80
2022/04/01 07:34:54;;;;;;;6.03;1.77;;;3.30;60.90;;;;;;5073454;28;20122;-80
2022/04/01 07:37:23;;;;;;;5.22;2.15;;;3.50;61.80;;;;;;5060251;28;20067;-80
2022/04/01 07:39:51;;;;;;;5.18;2.13;;;3.50;60.90;;;;;;5059477;28;20024;-81
2022/04/01 07:42:18;;;;;;;4.15;1.88;;;3.50;61.00;;;;;;5076550;28;20096;-81
2022/04/01 07:44:44;;;;;;;3.17;1.77;;;3.60;61.20;;;;;;5076875;28;20028;-80
2022/04/01 07:47:09;;;;;;;3.17;1.55;;;3.70;60.20;;;;;;5052141;28;20024;-81
2022/04/01 07:49:37;;;;;;;5.07;1.80;;;3.70;60.00;;;;;;5057021;28;20036;-80
2022/04/01 07:52:04;;;;;;;5.18;2.08;;;3.70;59.70;;;;;;5075703;28;20126;-80
2022/04/01 07:54:29;;;;;;;7.32;2.22;;;3.80;59.90;;;;;;5075558;28;20032;-80
2022/04/01 07:56:55;;;;;;;3.65;1.90;;;3.80;59.40;;;;;;5076892;28;20379;-80
2022/04/01 07:59:21;;;;;;;3.75;1.60;;;3.90;59.80;;;;;;5054732;28;20119;-80
2022/04/01 08:01:47;;;;;;;5.22;1.92;;;4.00;59.50;;;;;;5077237;28;20028;-80
2022/04/01 08:04:12;;;;;;;4.72;2.03;;;4.00;59.20;;;;;;5071903;28;20060;-80
2022/04/01 08:06:38;;;;;;;4.00;1.90;;;4.20;58.80;;;;;;5057382;28;20020;-80
2022/04/01 08:09:04;;;;;;;7.57;1.90;;;4.30;59.50;;;;;;5060756;28;20087;-80
2022/04/01 08:11:29;;;;;;;11.95;2.00;;;4.30;58.80;;;;;;5060342;28;20028;-80
2022/04/01 08:13:55;;;;;;;5.13;1.92;;;4.20;58.20;;;;;;5059178;28;20111;-80
2022/04/01 08:16:22;;;;;;;5.07;2.05;;;4.20;58.50;;;;;;5055990;28;20464;-80
2022/04/01 08:18:48;;;;;;;3.42;2.00;;;4.50;59.30;;;;;;5073224;28;20032;-81
2022/04/01 08:21:15;;;;;;;5.25;2.20;;;4.60;59.00;;;;;;5062464;28;20021;-81
2022/04/01 08:23:40;;;;;;;4.97;2.00;;;4.50;58.00;;;;;;5053441;28;20036;-81
2022/04/01 08:26:07;;;;;;;3.97;1.80;;;4.60;59.60;;;;;;5068560;28;20028;-81
2022/04/01 08:28:33;;;;;;;4.63;1.98;;;4.80;59.00;;;;;;5055284;28;20036;-81
2022/04/01 08:30:59;;;;;;;6.45;1.98;;;4.80;57.90;;;;;;5052599;28;20032;-81
2022/04/01 08:33:26;;;;;;;5.85;2.13;;;4.80;58.70;;;;;;5074158;28;20558;-80
2022/04/01 08:35:51;;;;;;;7.75;2.45;;;4.80;58.00;;;;;;5059135;28;20139;-80
2022/04/01 08:38:17;;;;;;;3.80;1.92;;;4.60;58.20;;;;;;5064585;28;20119;-81
2022/04/01 08:40:43;;;;;;;6.35;1.90;;;4.70;58.50;;;;;;5066607;28;20025;-81
2022/04/01 08:43:09;;;;;;;6.68;2.58;;;4.90;58.00;;;;;;5071603;28;20025;-81
2022/04/01 08:45:39;;;;;;;5.97;2.10;;;4.80;58.10;;;;;;5068336;28;20119;-80
2022/04/01 08:48:10;;;;;;;4.40;2.13;;;4.70;57.50;;;;;;5069713;28;20064;-80
2022/04/01 08:50:35;;;;;;;4.13;2.33;;;4.60;55.90;;;;;;5072961;28;20031;-81
2022/04/01 08:53:01;;;;;;;4.70;2.03;;;4.70;56.80;;;;;;5070666;28;20467;-80
2022/04/01 08:55:27;;;;;;;4.95;1.92;;;4.70;56.60;;;;;;5063115;28;20025;-80
2022/04/01 08:57:52;;;;;;;5.30;1.92;;;4.90;58.10;;;;;;5064789;28;20036;-81
2022/04/01 09:00:18;;;;;;;6.43;2.03;;;5.10;56.70;;;;;;5072411;28;20297;-80
2022/04/01 09:02:51;;;;;;;5.38;2.13;;;5.20;57.00;;;;;;5069229;28;20020;-81
2022/04/01 09:05:19;;;;;;;6.05;2.08;;;5.30;55.50;;;;;;5070408;28;20487;-81
2022/04/01 09:07:46;;;;;;;4.03;1.88;;;5.30;55.70;;;;;;5070610;28;20374;-80
2022/04/01 09:10:12;;;;;;;8.43;2.08;;;5.20;54.10;;;;;;5070386;28;20025;-80
2022/04/01 09:12:48;;;;;;;4.90;2.30;;;5.10;55.60;;;;;;5063361;28;20575;-81
2022/04/01 09:15:14;;;;;;;4.13;2.10;;;5.20;55.90;;;;;;5072140;28;20032;-81
2022/04/01 09:17:43;;;;;;;3.97;1.85;;;5.30;55.70;;;;;;5071128;28;20044;-81
2022/04/01 09:20:10;;;;;;;5.72;2.20;;;5.30;55.80;;;;;;5057247;28;20452;-80
2022/04/01 09:22:37;;;;;;;4.63;2.13;;;5.40;55.10;;;;;;5067923;28;20491;-81
2022/04/01 09:25:13;;;;;;;5.10;1.95;;;5.50;54.60;;;;;;5073206;28;20027;-81
2022/04/01 09:27:40;;;;;;;3.75;1.80;;;5.60;55.50;;;;;;5070750;28;20025;-81
2022/04/01 09:30:09;;;;;;;6.22;1.90;;;5.40;55.20;;;;;;5070835;28;20032;-80
2022/04/01 09:32:44;;;;;;;8.05;2.33;;;5.50;55.20;;;;;;5070029;28;20494;-81
2022/04/01 09:35:11;;;;;;;4.95;1.83;;;5.60;54.70;;;;;;5071163;28;20040;-81
2022/04/01 09:37:38;;;;;;;5.68;2.00;;;5.60;53.70;;;;;;5054660;28;20039;-81
2022/04/01 09:40:04;;;;;;;2.97;1.90;;;5.70;53.40;;;;;;5073706;28;20059;-80
2022/04/01 09:42:30;;;;;;;3.63;1.60;;;5.90;53.90;;;;;;5054407;28;20115;-81
2022/04/01 09:45:00;;;;;;;3.03;1.73;;;5.70;52.70;;;;;;5051623;28;20115;-81
2022/04/01 09:47:26;;;;;;;8.02;1.67;;;6.00;53.50;;;;;;5061596;28;20096;-81
2022/04/01 09:49:54;;;;;;;3.67;2.00;;;6.20;54.00;;;;;;5064938;28;20028;-81
2022/04/01 09:52:22;;;;;;;3.85;1.77;;;6.40;54.50;;;;;;5054078;28;20094;-80
2022/04/01 09:54:50;;;;;;;4.13;1.83;;;6.10;53.00;;;;;;5071318;28;20040;-81
2022/04/01 09:57:18;;;;;;;4.20;2.08;;;6.20;54.00;;;;;;5054413;28;20032;-81
2022/04/01 09:59:45;;;;;;;8.57;1.73;;;6.20;53.40;;;;;;5052850;28;20063;-80
2022/04/01 10:02:11;;;;;;;3.60;1.88;;;6.10;53.30;;;;;;5054370;28;20162;-81
2022/04/01 10:04:36;;;;;;;5.57;2.30;;;5.90;54.00;;;;;;5063167;28;20041;-80
2022/04/01 10:07:03;;;;;;;14.77;2.03;;;6.00;54.60;;;;;;5072859;28;20387;-81
2022/04/01 10:09:30;;;;;;;8.10;2.03;;;6.00;54.40;;;;;;5072906;28;20074;-81
2022/04/01 10:12:00;;;;;;;4.60;1.73;;;6.00;54.70;;;;;;5072289;28;20020;-81
2022/04/01 10:14:26;;;;;;;3.63;1.88;;;6.00;53.60;;;;;;5053112;28;20032;-81
2022/04/01 10:16:55;;;;;;;8.07;2.20;;;6.00;53.10;;;;;;5071150;28;20039;-81
2022/04/01 10:19:24;;;;;;;7.38;1.77;;;5.90;53.10;;;;;;5044311;28;20021;-81
2022/04/01 10:21:51;;;;;;;5.30;1.83;;;6.00;52.90;;;;;;5044957;28;20062;-81
2022/04/01 10:24:44;;;;;;;3.42;1.70;;;6.00;53.20;;;;;;5046121;28;20136;-81
2022/04/01 10:27:26;;;;;;;6.00;1.70;;;5.80;52.50;;;;;;5053183;28;20020;-81
2022/04/01 10:29:56;;;;;;;3.97;1.50;;;6.10;53.70;;;;;;5066066;28;20036;-81
2022/04/01 10:32:29;;;;;;;4.63;1.73;;;6.50;52.70;;;;;;5071050;28;20036;-81
2022/04/01 10:34:58;;;;;;;6.15;1.83;;;6.50;51.90;;;;;;5051762;28;20028;-81
2022/04/01 10:37:25;;;;;;;3.80;1.55;;;6.40;51.30;;;;;;5064733;28;20593;-81
2022/04/01 10:39:58;;;;;;;3.28;1.60;;;6.30;51.80;;;;;;5048254;28;20077;-81
2022/04/01 10:42:35;;;;;;;3.88;1.55;;;6.30;51.80;;;;;;5068785;28;20081;-81
2022/04/01 10:45:14;;;;;;;4.63;1.70;;;6.60;52.70;;;;;;5053743;28;20395;-81
2022/04/01 10:53:45;;;;;;;4.82;1.75;;;6.60;50.50;;;;;;5067968;28;20032;-81
2022/04/01 10:56:21;;;;;;;3.05;1.60;;;6.70;51.20;;;;;;5043035;28;20026;-81
2022/04/01 10:59:05;;;;;;;3.25;1.85;;;6.40;50.10;;;;;;5050793;28;20079;-81
2022/04/01 11:01:32;;;;;;;3.22;2.00;;;6.50;50.90;;;;;;5054212;28;20032;-81
2022/04/01 11:04:21;;;;;;;2.78;1.50;;;6.70;50.80;;;;;;5070186;28;20092;-81
2022/04/01 11:06:57;;;;;;;4.85;1.70;;;6.70;49.60;;;;;;5057077;28;20055;-81
2022/04/01 11:09:46;;;;;;;3.80;1.70;;;6.60;49.50;;;;;;5050034;28;20033;-81
2022/04/01 11:12:14;;;;;;;5.22;1.95;;;6.80;50.60;;;;;;5068115;28;20028;-81
2022/04/01 11:15:08;;;;;;;4.18;1.70;;;7.10;50.00;;;;;;5050664;28;20032;-81
2022/04/01 11:17:34;;;;;;;4.28;1.60;;;7.10;48.20;;;;;;5044203;28;20040;-81
2022/04/01 11:20:27;;;;;;;2.80;1.58;;;7.20;48.80;;;;;;5047443;28;20395;-81
2022/04/01 11:22:53;;;;;;;3.53;1.83;;;6.90;48.70;;;;;;5043657;28;20040;-81
2022/04/01 11:25:21;;;;;;;4.07;1.80;;;7.10;49.10;;;;;;5048174;28;20383;-81
2022/04/01 11:28:01;;;;;;;8.48;1.85;;;7.20;49.30;;;;;;5065383;28;20029;-81
2022/04/01 11:30:35;;;;;;;6.05;1.80;;;7.10;49.00;;;;;;5063677;28;20483;-81
2022/04/01 11:33:02;;;;;;;5.22;2.08;;;6.80;49.00;;;;;;5053178;28;20037;-80
2022/04/01 11:35:30;;;;;;;2.88;1.60;;;7.00;50.70;;;;;;5069362;28;20076;-81
2022/04/01 11:37:57;;;;;;;2.42;1.42;;;7.30;50.80;;;;;;5071946;28;20063;-81
2022/04/01 11:40:27;;;;;;;4.97;1.92;;;6.90;50.20;;;;;;5053370;28;20020;-81
2022/04/01 11:42:53;;;;;;;4.70;1.90;;;6.90;50.70;;;;;;5071125;28;20456;-81
2022/04/01 11:45:20;;;;;;;3.17;1.48;;;7.10;49.50;;;;;;5068231;28;20025;-81
2022/04/01 11:47:45;;;;;;;2.83;1.48;;;7.10;49.40;;;;;;5069672;28;20036;-81
2022/04/01 11:50:13;;;;;;;4.07;1.90;;;7.00;49.30;;;;;;5052493;28;20037;-81
2022/04/01 11:52:45;;;;;;;5.82;1.75;;;7.00;50.60;;;;;;5055630;28;20124;-81
2022/04/01 11:55:16;;;;;;;2.40;1.27;;;7.00;50.80;;;;;;5072896;28;20024;-80
2022/04/01 11:57:42;;;;;;;2.88;1.55;;;6.90;50.70;;;;;;5073565;28;20039;-81
2022/04/01 12:00:15;;;;;;;3.75;1.35;;;6.90;51.70;;;;;;5057265;28;20089;-81
2022/04/01 12:02:42;;;;;;;4.25;1.73;;;7.00;50.10;;;;;;5055382;28;20036;-80
2022/04/01 12:05:09;;;;;;;6.18;1.65;;;6.80;50.60;;;;;;5066553;28;20044;-80
2022/04/01 12:10:19;;;;;;;2.92;1.35;;;7.10;49.00;;;;;;5074014;28;20071;-81
2022/04/01 12:12:56;;;;;;;3.72;1.67;;;7.30;49.40;;;;;;5074635;28;20025;-81
2022/04/01 12:15:30;;;;;;;3.45;1.67;;;7.20;50.10;;;;;;5073992;28;20033;-80
2022/04/01 12:17:55;;;;;;;3.53;1.55;;;6.80;51.30;;;;;;5067036;28;20048;-80
2022/04/01 12:20:21;;;;;;;3.90;1.58;;;6.80;50.80;;;;;;5055707;28;20543;-80
2022/04/01 12:22:47;;;;;;;3.58;1.60;;;6.70;51.40;;;;;;5067003;28;20086;-81
2022/04/01 12:25:12;;;;;;;5.45;1.63;;;6.80;50.50;;;;;;5073778;28;20084;-81
2022/04/01 12:27:52;;;;;;;2.83;1.40;;;7.10;51.20;;;;;;5074023;28;20025;-81
2022/04/01 12:30:30;;;;;;;4.68;1.60;;;7.00;51.50;;;;;;5075249;28;20035;-81
2022/04/01 12:32:56;;;;;;;3.35;1.35;;;7.10;51.70;;;;;;5056252;28;20054;-81
2022/04/01 12:35:25;;;;;;;3.40;1.73;;;7.20;51.00;;;;;;5070732;28;20465;-81
2022/04/01 12:38:09;;;;;;;3.08;1.60;;;7.10;51.00;;;;;;5064697;28;20032;-81
2022/04/01 12:40:48;;;;;;;2.80;1.48;;;7.00;51.20;;;;;;5054443;28;20028;-81
2022/04/01 12:43:45;;;;;;;5.32;1.50;;;7.00;52.90;;;;;;5055094;28;20052;-81
2022/04/01 12:46:11;;;;;;;5.03;1.85;;;6.70;53.60;;;;;;5056107;28;20076;-82
2022/04/01 12:48:47;;;;;;;5.15;1.73;;;6.70;54.40;;;;;;5074093;28;20088;-80
2022/04/01 12:51:17;;;;;;;4.30;1.65;;;6.60;53.70;;;;;;5070500;28;20036;-80
2022/04/01 12:53:55;;;;;;;4.18;1.80;;;6.60;54.60;;;;;;5055256;28;20760;-80
2022/04/01 12:56:25;;;;;;;3.92;1.65;;;6.40;54.40;;;;;;5074974;28;20038;-81
2022/04/01 12:58:53;;;;;;;2.95;1.45;;;6.50;56.30;;;;;;5055053;28;20028;-81
2022/04/01 13:01:20;;;;;;;4.78;1.40;;;6.60;55.70;;;;;;5055083;28;20112;-81
2022/04/01 13:03:47;;;;;;;14.07;2.08;;;6.80;55.90;;;;;;5072274;28;20025;-80
2022/04/01 13:06:14;;;;;;;6.03;1.50;;;6.90;55.60;;;;;;5071194;28;20025;-81
2022/04/01 13:08:39;;;;;;;6.20;1.90;;;6.90;55.70;;;;;;5070750;28;20032;-81
2022/04/01 13:11:12;;;;;;;4.57;1.65;;;6.60;55.20;;;;;;5059525;28;21791;-81
2022/04/01 13:13:38;;;;;;;5.10;1.45;;;6.60;56.10;;;;;;5055223;28;20025;-80
2022/04/01 13:16:04;;;;;;;7.32;1.40;;;6.50;55.90;;;;;;5070830;28;20102;-80
2022/04/01 13:18:32;;;;;;;5.78;1.80;;;6.30;56.20;;;;;;5072524;28;20025;-80
2022/04/01 13:20:58;;;;;;;3.58;1.60;;;6.20;56.90;;;;;;5071586;28;20021;-81
2022/04/01 13:23:25;;;;;;;3.90;1.63;;;6.20;57.40;;;;;;5072903;28;20098;-81
2022/04/01 13:25:51;;;;;;;3.75;1.48;;;6.30;57.10;;;;;;5052741;28;20111;-81